createdAt,value
2018-02-24T00:01:04.320Z,98231.30
2018-02-24T00:03:31.890Z,98227.92
2018-02-24T00:05:59.435Z,98231.89
2018-02-24T00:08:26.961Z,98224.83
2018-02-24T00:10:54.455Z,98225.63
2018-02-24T00:13:22.012Z,98231.52
2018-02-24T00:15:49.503Z,98229.72
2018-02-24T00:18:17.016Z,98226.68
2018-02-24T00:20:44.584Z,98223.72
2018-02-24T00:23:12.099Z,98222.89
2018-02-24T00:25:39.627Z,98226.88
2018-02-24T00:28:07.151Z,98224.03
2018-02-24T00:30:34.663Z,98217.83
2018-02-24T00:33:02.292Z,98216.63
2018-02-24T00:35:29.783Z,98212.78
2018-02-24T00:37:57.299Z,98219.09
2018-02-24T00:40:24.840Z,98211.08
2018-02-24T00:42:52.418Z,98213.34
2018-02-24T00:45:19.910Z,98213.34
2018-02-24T00:47:47.425Z,98210.45
2018-02-24T00:50:14.912Z,98211.31
2018-02-24T00:52:42.419Z,98217.20
2018-02-24T00:55:10.133Z,98222.63
2018-02-24T00:57:37.644Z,98219.83
2018-02-24T01:00:05.311Z,98218.61
2018-02-24T01:02:32.823Z,98211.72
2018-02-24T01:05:00.323Z,98221.36
2018-02-24T01:07:27.827Z,98209.78
2018-02-24T01:09:55.371Z,98213.77
2018-02-24T01:12:22.868Z,98218.25
2018-02-24T01:14:50.386Z,98210.83
2018-02-24T01:17:17.872Z,98211.94
2018-02-24T01:19:45.404Z,98213.19
2018-02-24T01:22:12.916Z,98218.47
2018-02-24T01:24:40.551Z,98210.34
2018-02-24T01:27:08.060Z,98207.05
2018-02-24T01:29:35.605Z,98208.34
2018-02-24T01:32:03.117Z,98212.67
2018-02-24T01:34:31.592Z,98217.41
2018-02-24T01:36:59.147Z,98203.92
2018-02-24T01:39:26.704Z,98205.35
2018-02-24T01:41:54.232Z,98207.94
2018-02-24T01:44:21.744Z,98205.98
2018-02-24T01:46:49.260Z,98220.99
2018-02-24T01:49:16.947Z,98226.68
2018-02-24T01:51:44.439Z,98216.72
2018-02-24T01:54:12.063Z,98215.45
2018-02-24T01:56:39.563Z,98217.24
2018-02-24T01:59:07.089Z,98220.89
2018-02-24T02:01:35.527Z,98209.81
2018-02-24T02:04:03.038Z,98212.88
2018-02-24T02:06:30.574Z,98201.83
2018-02-24T02:08:58.143Z,98205.35
2018-02-24T02:11:25.704Z,98216.98
2018-02-24T02:13:53.224Z,98212.66
2018-02-24T02:16:20.715Z,98207.52
2018-02-24T02:18:48.223Z,98202.77
2018-02-24T02:21:15.711Z,98202.03
2018-02-24T02:23:43.240Z,98208.34
2018-02-24T02:26:10.755Z,98198.81
2018-02-24T02:28:38.267Z,98200.83
2018-02-24T02:31:05.764Z,98200.66
2018-02-24T02:33:33.284Z,98196.34
2018-02-24T02:36:00.900Z,98195.98
2018-02-24T02:38:28.416Z,98200.45
2018-02-24T02:40:55.919Z,98192.20
2018-02-24T02:43:23.461Z,98188.45
2018-02-24T02:45:50.980Z,98181.08
2018-02-24T02:48:18.471Z,98177.24
2018-02-24T02:50:45.999Z,98181.08
2018-02-24T02:53:13.493Z,98176.41
2018-02-24T02:55:41.056Z,98174.08
2018-02-24T02:58:08.550Z,98167.56
2018-02-24T03:00:36.090Z,98163.92
2018-02-24T03:03:03.592Z,98163.39
2018-02-24T03:05:31.200Z,98164.86
2018-02-24T03:07:58.715Z,98165.23
2018-02-24T03:10:26.319Z,98152.28
2018-02-24T03:12:53.811Z,98155.41
2018-02-24T03:15:21.327Z,98158.91
2018-02-24T03:17:48.811Z,98161.55
2018-02-24T03:20:16.368Z,98159.80
2018-02-24T03:22:43.903Z,98166.23
2018-02-24T03:25:11.420Z,98166.19
2018-02-24T03:27:38.911Z,98158.80
2018-02-24T03:30:06.445Z,98158.70
2018-02-24T03:32:34.026Z,98156.92
2018-02-24T03:35:01.572Z,98150.81
2018-02-24T03:37:29.059Z,98156.61
2018-02-24T03:39:56.663Z,98153.45
2018-02-24T03:42:24.401Z,98146.33
2018-02-24T03:44:51.919Z,98152.08
2018-02-24T03:47:19.458Z,98157.81
2018-02-24T03:49:46.963Z,98155.16
2018-02-24T03:52:14.479Z,98150.16
2018-02-24T03:54:41.993Z,98148.37
2018-02-24T03:57:09.487Z,98150.70
2018-02-24T03:59:37.095Z,98147.59
2018-02-24T04:02:04.667Z,98144.38
2018-02-24T04:04:32.184Z,98141.55
2018-02-24T04:06:59.672Z,98143.34
2018-02-24T04:09:27.235Z,98145.59
2018-02-24T04:11:54.723Z,98147.28
2018-02-24T04:14:22.285Z,98144.28
2018-02-24T04:16:50.719Z,98151.66
2018-02-24T04:19:18.295Z,98148.49
2018-02-24T04:21:45.812Z,98147.77
2018-02-24T04:24:13.423Z,98153.50
2018-02-24T04:26:40.956Z,98155.77
2018-02-24T04:29:08.531Z,98158.23
2018-02-24T04:31:36.055Z,98157.46
2018-02-24T04:34:03.548Z,98155.28
2018-02-24T04:36:31.106Z,98160.14
2018-02-24T04:38:58.671Z,98158.13
2018-02-24T04:41:26.237Z,98152.70
2018-02-24T04:43:53.755Z,98159.40
2018-02-24T04:46:21.265Z,98168.39
2018-02-24T04:48:48.808Z,98168.33
2018-02-24T04:51:16.327Z,98166.23
2018-02-24T04:53:44.827Z,98167.59
2018-02-24T04:56:12.407Z,98164.59
2018-02-24T04:58:39.967Z,98172.43
2018-02-24T05:01:07.526Z,98170.27
2018-02-24T05:03:35.027Z,98177.00
2018-02-24T05:06:02.649Z,98174.89
2018-02-24T05:08:30.143Z,98168.62
2018-02-24T05:10:57.664Z,98170.28
2018-02-24T05:13:25.196Z,98170.89
2018-02-24T05:15:52.703Z,98167.42
2018-02-24T05:18:20.236Z,98165.80
2018-02-24T05:20:47.747Z,98167.73
2018-02-24T05:23:15.477Z,98167.03
2018-02-24T05:25:43.020Z,98173.95
2018-02-24T05:28:10.515Z,98175.90
2018-02-24T05:30:38.043Z,98175.25
2018-02-24T05:33:05.540Z,98172.30
2018-02-24T05:35:34.085Z,98164.66
2018-02-24T05:38:01.580Z,98166.41
2018-02-24T05:40:29.100Z,98168.09
2018-02-24T05:42:56.658Z,98169.66
2018-02-24T05:45:24.221Z,98178.43
2018-02-24T05:47:51.776Z,98179.60
2018-02-24T05:50:19.303Z,98183.77
2018-02-24T05:52:46.896Z,98181.34
2018-02-24T05:55:14.391Z,98185.91
2018-02-24T05:57:41.923Z,98184.73
2018-02-24T06:00:09.590Z,98184.14
2018-02-24T06:02:37.166Z,98180.63
2018-02-24T06:05:04.631Z,98178.55
2018-02-24T06:07:32.282Z,98182.08
2018-02-24T06:09:59.784Z,98180.87
2018-02-24T06:12:27.338Z,98183.16
2018-02-24T06:14:54.834Z,98179.31
2018-02-24T06:17:22.396Z,98182.84
2018-02-24T06:19:49.967Z,98189.55
2018-02-24T06:22:17.484Z,98189.30
2018-02-24T06:24:44.984Z,98195.07
2018-02-24T06:27:12.647Z,98199.77
2018-02-24T06:29:40.144Z,98196.63
2018-02-24T06:32:07.655Z,98193.85
2018-02-24T06:34:35.167Z,98201.50
2018-02-24T06:37:02.683Z,98199.01
2018-02-24T06:39:30.240Z,98200.98
2018-02-24T06:41:57.788Z,98203.62
2018-02-24T06:44:25.305Z,98223.16
2018-02-24T06:46:52.825Z,98217.30
2018-02-24T06:49:20.334Z,98220.64
2018-02-24T06:51:47.876Z,98216.66
2018-02-24T06:54:15.386Z,98219.50
2018-02-24T06:56:42.895Z,98228.03
2018-02-24T06:59:10.392Z,98225.80
2018-02-24T07:01:37.903Z,98220.81
2018-02-24T07:04:05.416Z,98221.62
2018-02-24T07:06:32.932Z,98223.55
2018-02-24T07:09:00.422Z,98219.23
2018-02-24T07:11:27.937Z,98216.64
2018-02-24T07:13:55.432Z,98219.69
2018-02-24T07:16:23.003Z,98213.45
2018-02-24T07:18:50.510Z,98218.70
2018-02-24T07:21:18.027Z,98219.75
2018-02-24T07:23:45.527Z,98226.69
2018-02-24T07:26:13.095Z,98234.89
2018-02-24T07:28:40.607Z,98229.55
2018-02-24T07:31:08.116Z,98236.45
2018-02-24T07:33:35.632Z,98239.73
2018-02-24T07:36:03.280Z,98242.77
2018-02-24T07:38:30.806Z,98243.34
2018-02-24T07:40:58.304Z,98248.49
2018-02-24T07:43:25.819Z,98243.19
2018-02-24T07:45:53.340Z,98243.41
2018-02-24T07:48:20.880Z,98249.56
2018-02-24T07:50:48.480Z,98254.72
2018-02-24T07:53:16.000Z,98255.42
2018-02-24T07:55:43.556Z,98254.73
2018-02-24T07:58:11.099Z,98250.46
2018-02-24T08:00:38.592Z,98243.28
2018-02-24T08:03:06.137Z,98247.55
2018-02-24T08:05:33.623Z,98246.55
2018-02-24T08:08:01.147Z,98252.09
2018-02-24T08:10:28.645Z,98251.58
2018-02-24T08:12:56.160Z,98264.11
2018-02-24T08:15:23.652Z,98254.39
2018-02-24T08:17:51.167Z,98261.15
2018-02-24T08:20:18.659Z,98267.35
2018-02-24T08:22:46.191Z,98260.11
2018-02-24T08:25:13.687Z,98260.73
2018-02-24T08:27:41.317Z,98269.52
2018-02-24T08:30:08.848Z,98266.41
2018-02-24T08:32:36.463Z,98259.51
2018-02-24T08:35:04.002Z,98265.16
2018-02-24T08:37:31.515Z,98262.45
2018-02-24T08:39:59.007Z,98266.58
2018-02-24T08:42:26.573Z,98269.95
2018-02-24T08:44:54.131Z,98265.39
2018-02-24T08:47:21.698Z,98270.96
2018-02-24T08:49:49.187Z,98275.89
2018-02-24T08:52:16.704Z,98277.80
2018-02-24T08:54:44.227Z,98279.69
2018-02-24T08:57:11.735Z,98283.07
2018-02-24T08:59:39.253Z,98276.05
2018-02-24T09:02:06.840Z,98283.03
2018-02-24T09:04:34.415Z,98284.97
2018-02-24T09:07:01.927Z,98283.42
2018-02-24T09:09:29.532Z,98289.84
2018-02-24T09:11:57.073Z,98287.92
2018-02-24T09:14:24.643Z,98289.65
2018-02-24T09:16:52.138Z,98284.27
2018-02-24T09:19:19.683Z,98287.18
2018-02-24T09:21:47.175Z,98280.75
2018-02-24T09:24:14.797Z,98273.69
2018-02-24T09:26:42.288Z,98284.00
2018-02-24T09:29:09.815Z,98286.10
2018-02-24T09:31:37.311Z,98285.94
2018-02-24T09:34:04.911Z,98294.77
2018-02-24T09:36:32.473Z,98293.92
2018-02-24T09:38:59.989Z,98300.39
2018-02-24T09:41:27.479Z,98295.64
2018-02-24T09:43:54.986Z,98297.05
2018-02-24T09:46:22.476Z,98304.97
2018-02-24T09:48:50.063Z,98310.48
2018-02-24T09:51:17.556Z,98299.16
2018-02-24T09:53:45.086Z,98301.41
2018-02-24T09:56:12.668Z,98310.78
2018-02-24T09:58:40.257Z,98309.07
2018-02-24T10:01:07.799Z,98307.22
2018-02-24T10:03:35.354Z,98314.50
2018-02-24T10:06:02.855Z,98316.76
2018-02-24T10:08:30.367Z,98317.22
2018-02-24T10:10:57.925Z,98323.45
2018-02-24T10:13:25.476Z,98321.30
2018-02-24T10:15:53.044Z,98327.50
2018-02-24T10:18:20.599Z,98330.78
2018-02-24T10:20:48.160Z,98334.89
2018-02-24T10:23:15.720Z,98338.84
2018-02-24T10:25:43.258Z,98337.34
2018-02-24T10:28:10.790Z,98333.61
2018-02-24T10:30:38.312Z,98335.05
2018-02-24T10:33:05.940Z,98335.81
2018-02-24T10:35:33.471Z,98341.59
2018-02-24T10:38:00.974Z,98341.49
2018-02-24T10:40:28.511Z,98345.05
2018-02-24T10:42:56.002Z,98344.45
2018-02-24T10:45:23.518Z,98344.56
2018-02-24T10:47:51.101Z,98340.45
2018-02-24T10:50:18.655Z,98342.62
2018-02-24T10:52:46.155Z,98345.23
2018-02-24T10:55:13.684Z,98338.95
2018-02-24T10:57:41.180Z,98338.25
2018-02-24T11:00:08.705Z,98332.31
2018-02-24T11:02:36.196Z,98332.22
2018-02-24T11:05:03.711Z,98333.38
2018-02-24T11:07:31.224Z,98327.98
2018-02-24T11:09:58.734Z,98321.05
2018-02-24T11:12:26.220Z,98322.38
2018-02-24T11:14:53.842Z,98320.55
2018-02-24T11:17:21.335Z,98314.05
2018-02-24T11:19:48.852Z,98314.30
2018-02-24T11:22:16.344Z,98310.16
2018-02-24T11:24:43.887Z,98313.02
2018-02-24T11:27:11.388Z,98303.17
2018-02-24T11:29:38.997Z,98306.27
2018-02-24T11:32:06.487Z,98311.42
2018-02-24T11:34:34.118Z,98317.64
2018-02-24T11:37:01.672Z,98313.31
2018-02-24T11:39:34.720Z,98311.53
2018-02-24T11:42:02.242Z,98300.89
2018-02-24T11:44:29.788Z,98301.48
2018-02-24T11:46:57.344Z,98304.30
2018-02-24T11:49:24.861Z,98302.44
2018-02-24T11:51:52.456Z,98298.31
2018-02-24T11:54:20.056Z,98298.38
2018-02-24T11:56:47.555Z,98294.24
2018-02-24T11:59:15.108Z,98294.13
2018-02-24T12:01:42.604Z,98298.30
2018-02-24T12:04:10.119Z,98297.76
2018-02-24T12:06:37.612Z,98296.77
2018-02-24T12:09:05.124Z,98296.89
2018-02-24T12:11:32.614Z,98295.08
2018-02-24T12:14:00.117Z,98294.17
2018-02-24T12:16:27.668Z,98296.97
2018-02-24T12:18:55.219Z,98292.83
2018-02-24T12:21:22.772Z,98296.45
2018-02-24T12:23:50.271Z,98290.79
2018-02-24T12:26:17.934Z,98292.64
2018-02-24T12:28:45.421Z,98286.31
2018-02-24T12:31:13.120Z,98282.23
2018-02-24T12:33:40.620Z,98285.67
2018-02-24T12:36:08.137Z,98280.02
2018-02-24T12:38:35.627Z,98284.09
2018-02-24T12:41:03.135Z,98278.45
2018-02-24T12:43:30.625Z,98280.23
2018-02-24T12:45:58.164Z,98276.59
2018-02-24T12:48:25.662Z,98275.52
2018-02-24T12:50:53.222Z,98274.53
2018-02-24T12:53:20.707Z,98274.98
2018-02-24T12:55:48.223Z,98272.39
2018-02-24T12:58:15.759Z,98272.23
2018-02-24T13:00:43.268Z,98273.27
2018-02-24T13:03:10.780Z,98268.55
2018-02-24T13:05:38.296Z,98272.28
2018-02-24T13:08:05.788Z,98267.87
2018-02-24T13:10:33.317Z,98266.54
2018-02-24T13:13:00.929Z,98262.09
2018-02-24T13:15:28.439Z,98261.73
2018-02-24T13:17:55.933Z,98259.95
2018-02-24T13:20:23.487Z,98257.07
2018-02-24T13:22:50.993Z,98264.58
2018-02-24T13:25:18.550Z,98265.31
2018-02-24T13:27:46.021Z,98260.84
2018-02-24T13:30:13.536Z,98263.33
2018-02-24T13:32:41.039Z,98251.23
2018-02-24T13:35:08.570Z,98257.20
2018-02-24T13:37:36.088Z,98248.17
2018-02-24T13:40:03.627Z,98251.34
2018-02-24T13:42:31.219Z,98249.92
2018-02-24T13:44:58.779Z,98252.15
2018-02-24T13:47:26.292Z,98248.78
2018-02-24T13:49:53.784Z,98250.91
2018-02-24T13:52:21.292Z,98250.27
2018-02-24T13:54:48.783Z,98259.16
2018-02-24T13:57:16.377Z,98248.45
2018-02-24T13:59:43.951Z,98251.90
2018-02-24T14:02:11.484Z,98259.56
2018-02-24T14:04:39.028Z,98263.64
2018-02-24T14:07:06.543Z,98253.91
2018-02-24T14:09:34.039Z,98262.02
2018-02-24T14:12:01.716Z,98263.13
2018-02-24T14:14:29.294Z,98256.39
2018-02-24T14:16:56.840Z,98254.61
2018-02-24T14:19:24.334Z,98253.77
2018-02-24T14:21:51.981Z,98255.22
2018-02-24T14:24:19.533Z,98255.67
2018-02-24T14:26:47.051Z,98253.38
2018-02-24T14:29:14.573Z,98245.12
2018-02-24T14:31:42.128Z,98247.48
2018-02-24T14:34:09.644Z,98248.78
2018-02-24T14:36:37.235Z,98244.05
2018-02-24T14:39:04.730Z,98240.86
2018-02-24T14:41:32.245Z,98243.11
2018-02-24T14:43:59.745Z,98238.31
2018-02-24T14:46:27.283Z,98223.12
2018-02-24T14:48:54.796Z,98248.32
2018-02-24T14:51:22.310Z,98249.02
2018-02-24T14:53:49.807Z,98238.05
2018-02-24T14:56:17.342Z,98248.61
2018-02-24T14:58:44.868Z,98249.36
2018-02-24T15:01:12.387Z,98252.33
2018-02-24T15:03:39.879Z,98250.97
2018-02-24T15:06:07.392Z,98245.30
2018-02-24T15:08:34.904Z,98256.58
2018-02-24T15:11:02.424Z,98255.13
2018-02-24T15:13:30.003Z,98258.41
2018-02-24T15:15:57.540Z,98256.22
2018-02-24T15:18:25.044Z,98252.49
2018-02-24T15:20:52.572Z,98251.53
2018-02-24T15:23:20.068Z,98255.06
2018-02-24T15:25:47.571Z,98251.36
2018-02-24T15:28:15.108Z,98256.25
2018-02-24T15:30:42.609Z,98247.93
2018-02-24T15:33:10.127Z,98257.97
2018-02-24T15:35:37.655Z,98264.96
2018-02-24T15:38:05.197Z,98261.09
2018-02-24T15:40:32.760Z,98259.13
2018-02-24T15:43:00.281Z,98267.56
2018-02-24T15:45:27.784Z,98262.89
2018-02-24T15:47:55.344Z,98266.42
2018-02-24T15:50:22.831Z,98263.80
2018-02-24T15:52:51.198Z,98262.77
2018-02-24T15:55:18.723Z,98261.52
2018-02-24T15:57:46.287Z,98268.17
2018-02-24T16:00:13.852Z,98262.34
2018-02-24T16:02:41.371Z,98263.97
2018-02-24T16:05:08.979Z,98261.07
2018-02-24T16:07:36.676Z,98264.66
2018-02-24T16:10:04.191Z,98256.63
2018-02-24T16:12:31.704Z,98255.86
2018-02-24T16:14:59.216Z,98255.38
2018-02-24T16:17:26.737Z,98254.83
2018-02-24T16:19:54.230Z,98264.52
2018-02-24T16:22:21.739Z,98263.28
2018-02-24T16:24:49.233Z,98266.65
2018-02-24T16:27:16.763Z,98274.88
2018-02-24T16:29:44.255Z,98261.75
2018-02-24T16:32:11.767Z,98272.34
2018-02-24T16:34:39.268Z,98277.75
2018-02-24T16:37:06.797Z,98281.20
2018-02-24T16:39:34.313Z,98285.08
2018-02-24T16:42:01.852Z,98293.61
2018-02-24T16:44:29.419Z,98293.36
2018-02-24T16:46:56.931Z,98296.64
2018-02-24T16:49:24.451Z,98309.05
2018-02-24T16:51:51.974Z,98310.10
2018-02-24T16:54:19.551Z,98312.39
2018-02-24T16:56:47.134Z,98317.68
2018-02-24T16:59:14.663Z,98327.34
2018-02-24T17:01:42.154Z,98330.56
2018-02-24T17:04:09.686Z,98333.27
2018-02-24T17:06:37.180Z,98341.30
2018-02-24T17:09:04.702Z,98343.41
2018-02-24T17:11:32.227Z,98337.38
2018-02-24T17:13:59.741Z,98346.06
2018-02-24T17:16:27.300Z,98357.38
2018-02-24T17:18:54.852Z,98359.77
2018-02-24T17:21:22.344Z,98364.86
2018-02-24T17:23:49.868Z,98368.40
2018-02-24T17:26:17.542Z,98369.74
2018-02-24T17:28:45.057Z,98375.55
2018-02-24T17:31:12.547Z,98376.31
2018-02-24T17:33:40.063Z,98377.79
2018-02-24T17:36:11.423Z,98384.34
2018-02-24T17:38:45.635Z,98393.34
2018-02-24T17:41:15.295Z,98400.38
2018-02-24T17:43:43.744Z,98405.01
2018-02-24T17:46:11.331Z,98406.05
2018-02-24T17:48:38.870Z,98411.19
2018-02-24T17:51:06.429Z,98416.31
2018-02-24T17:53:33.940Z,98419.91
2018-02-24T17:56:01.434Z,98424.50
2018-02-24T17:58:28.950Z,98422.66
2018-02-24T18:00:56.455Z,98425.19
2018-02-24T18:03:23.996Z,98430.04
2018-02-24T18:05:51.561Z,98436.16
2018-02-24T18:08:19.148Z,98429.82
2018-02-24T18:10:46.709Z,98432.73
2018-02-24T18:13:14.288Z,98442.06
2018-02-24T18:15:41.783Z,98444.13
2018-02-24T18:18:09.352Z,98445.20
2018-02-24T18:20:36.824Z,98449.97
2018-02-24T18:23:04.366Z,98450.41
2018-02-24T18:25:31.852Z,98453.87
2018-02-24T18:27:59.375Z,98458.64
2018-02-24T18:30:26.898Z,98465.87
2018-02-24T18:32:54.440Z,98471.72
2018-02-24T18:35:21.935Z,98468.91
2018-02-24T18:37:49.463Z,98468.16
2018-02-24T18:40:16.997Z,98475.37
2018-02-24T18:42:44.516Z,98479.73
2018-02-24T18:45:12.135Z,98483.02
2018-02-24T18:47:39.644Z,98480.04
2018-02-24T18:50:07.257Z,98492.69
2018-02-24T18:52:34.822Z,98487.03
2018-02-24T18:55:02.343Z,98476.80
2018-02-24T18:57:29.936Z,98487.45
2018-02-24T18:59:57.465Z,98492.45
2018-02-24T19:02:24.964Z,98499.03
2018-02-24T19:04:52.479Z,98498.34
2018-02-24T19:07:20.080Z,98500.78
2018-02-24T19:09:47.594Z,98505.55
2018-02-24T19:12:15.087Z,98510.66
2018-02-24T19:14:42.758Z,98516.16
2018-02-24T19:17:10.259Z,98515.69
2018-02-24T19:19:37.783Z,98514.84
2018-02-24T19:22:05.454Z,98505.78
2018-02-24T19:24:32.988Z,98517.91
2018-02-24T19:27:00.485Z,98517.20
2018-02-24T19:29:27.991Z,98515.74
2018-02-24T19:31:55.488Z,98514.84
2018-02-24T19:34:23.016Z,98514.42
2018-02-24T19:36:50.508Z,98515.09
2018-02-24T19:39:18.068Z,98506.62
2018-02-24T19:41:45.575Z,98507.31
2018-02-24T19:44:13.236Z,98514.84
2018-02-24T19:46:40.728Z,98513.63
2018-02-24T19:49:08.257Z,98505.44
2018-02-24T19:51:35.768Z,98510.66
2018-02-24T19:54:03.264Z,98504.44
2018-02-24T19:56:30.777Z,98509.55
2018-02-24T19:58:58.333Z,98502.62
2018-02-24T20:01:25.854Z,98503.14
2018-02-24T20:03:53.351Z,98506.66
2018-02-24T20:06:20.868Z,98507.64
2018-02-24T20:08:48.421Z,98495.52
2018-02-24T20:11:16.037Z,98505.06
2018-02-24T20:13:43.572Z,98507.08
2018-02-24T20:16:11.084Z,98505.59
2018-02-24T20:18:38.686Z,98501.73
2018-02-24T20:21:06.229Z,98503.99
2018-02-24T20:23:33.803Z,98509.17
2018-02-24T20:26:01.323Z,98509.38
2018-02-24T20:28:28.821Z,98513.66
2018-02-24T20:30:56.353Z,98507.92
2018-02-24T20:33:23.943Z,98511.21
2018-02-24T20:35:51.452Z,98505.63
2018-02-24T20:38:18.964Z,98504.84
2018-02-24T20:40:46.516Z,98507.17
2018-02-24T20:43:14.004Z,98516.30
2018-02-24T20:45:41.631Z,98515.45
2018-02-24T20:48:09.128Z,98514.47
2018-02-24T20:50:36.693Z,98509.39
2018-02-24T20:53:04.188Z,98509.20
2018-02-24T20:55:31.741Z,98509.25
2018-02-24T20:57:59.248Z,98516.41
2018-02-24T21:00:26.764Z,98515.55
2018-02-24T21:02:55.303Z,98523.59
2018-02-24T21:05:22.823Z,98515.08
2018-02-24T21:07:50.392Z,98531.82
2018-02-24T21:10:17.972Z,98523.27
2018-02-24T21:12:45.487Z,98521.47
2018-02-24T21:15:13.075Z,98528.00
2018-02-24T21:17:40.582Z,98533.65
2018-02-24T21:20:08.069Z,98525.84
2018-02-24T21:22:35.599Z,98534.68
2018-02-24T21:25:03.095Z,98530.08
2018-02-24T21:27:30.629Z,98529.47
2018-02-24T21:29:58.147Z,98533.94
2018-02-24T21:32:26.059Z,98537.41
2018-02-24T21:34:53.594Z,98548.73
2018-02-24T21:37:21.215Z,98549.95
2018-02-24T21:39:48.711Z,98540.28
2018-02-24T21:42:16.227Z,98552.67
2018-02-24T21:44:43.720Z,98551.68
2018-02-24T21:47:11.244Z,98544.77
2018-02-24T21:49:38.735Z,98541.94
2018-02-24T21:52:06.267Z,98547.73
2018-02-24T21:54:33.762Z,98549.09
2018-02-24T21:57:01.278Z,98551.94
2018-02-24T21:59:28.770Z,98557.91
2018-02-24T22:01:56.299Z,98561.16
2018-02-24T22:04:23.800Z,98564.98
2018-02-24T22:06:51.320Z,98558.70
2018-02-24T22:09:18.824Z,98568.00
2018-02-24T22:11:46.356Z,98563.41
2018-02-24T22:14:13.855Z,98563.67
2018-02-24T22:16:41.373Z,98567.73
2018-02-24T22:19:08.864Z,98564.34
2018-02-24T22:21:36.383Z,98566.72
2018-02-24T22:24:03.875Z,98564.89
2018-02-24T22:26:31.393Z,98565.62
2018-02-24T22:28:58.879Z,98564.43
2018-02-24T22:31:26.404Z,98568.97
2018-02-24T22:33:53.905Z,98562.86
2018-02-24T22:36:21.416Z,98563.38
2018-02-24T22:38:48.991Z,98563.37
2018-02-24T22:41:16.534Z,98564.81
2018-02-24T22:43:44.024Z,98563.79
2018-02-24T22:46:11.551Z,98573.97
2018-02-24T22:48:44.655Z,98564.39
2018-02-24T22:51:12.212Z,98567.69
2018-02-24T22:53:39.723Z,98571.72
2018-02-24T22:56:07.216Z,98573.03
2018-02-24T22:58:34.755Z,98572.44
2018-02-24T23:01:02.367Z,98575.84
2018-02-24T23:03:29.881Z,98585.97
2018-02-24T23:05:57.375Z,98582.91
2018-02-24T23:08:25.027Z,98582.83
2018-02-24T23:10:52.528Z,98583.17
2018-02-24T23:13:20.057Z,98594.70
2018-02-24T23:15:47.627Z,98585.20
2018-02-24T23:18:15.226Z,98592.78
2018-02-24T23:20:42.752Z,98590.08
2018-02-24T23:23:10.300Z,98583.08
2018-02-24T23:25:37.808Z,98582.19
2018-02-24T23:28:05.328Z,98582.14
2018-02-24T23:30:32.839Z,98591.19
2018-02-24T23:33:00.404Z,98599.00
2018-02-24T23:35:27.907Z,98596.81
2018-02-24T23:37:55.452Z,98595.37
2018-02-24T23:40:22.991Z,98598.93
2018-02-24T23:42:50.512Z,98589.70
2018-02-24T23:45:18.008Z,98591.43
2018-02-24T23:47:45.524Z,98588.38
2018-02-24T23:50:13.016Z,98591.27
2018-02-24T23:52:40.599Z,98583.76
2018-02-24T23:55:08.100Z,98584.35
2018-02-24T23:57:35.628Z,98586.01
